createdAt,value
2022-10-26T00:01:19.039Z,31.62
2022-10-26T00:03:47.838Z,31.72
2022-10-26T00:06:19.617Z,31.30
2022-10-26T00:08:48.641Z,31.34
2022-10-26T00:11:17.337Z,31.60
2022-10-26T00:13:45.976Z,31.54
2022-10-26T00:16:16.186Z,31.56
2022-10-26T00:18:44.881Z,32.03
2022-10-26T00:21:14.055Z,31.78
2022-10-26T00:23:43.731Z,31.72
2022-10-26T00:26:12.644Z,31.63
2022-10-26T00:28:40.831Z,31.74
2022-10-26T00:31:13.782Z,31.31
2022-10-26T00:33:41.991Z,32.17
2022-10-26T00:36:11.104Z,32.04
2022-10-26T00:38:45.943Z,31.91
2022-10-26T00:41:17.779Z,31.26
2022-10-26T00:43:46.333Z,31.67
2022-10-26T00:46:17.701Z,31.45
2022-10-26T00:48:48.228Z,31.50
2022-10-26T00:51:20.713Z,31.66
2022-10-26T00:53:49.402Z,32.35
2022-10-26T00:56:19.845Z,31.91
2022-10-26T00:58:48.474Z,32.38
2022-10-26T01:01:17.055Z,32.16
2022-10-26T01:03:47.025Z,31.96
2022-10-26T01:06:15.851Z,32.08
2022-10-26T01:08:45.290Z,32.08
2022-10-26T01:11:14.160Z,32.15
2022-10-26T01:13:44.859Z,31.81
2022-10-26T01:16:40.762Z,31.11
2022-10-26T01:19:30.855Z,31.27
2022-10-26T01:22:02.127Z,31.91
2022-10-26T01:24:47.983Z,31.45
2022-10-26T01:27:29.024Z,31.24
2022-10-26T01:30:35.472Z,30.95
2022-10-26T01:33:26.557Z,31.36
2022-10-26T01:36:09.514Z,31.40
2022-10-26T01:38:45.472Z,31.56
2022-10-26T01:41:17.102Z,32.06
2022-10-26T01:43:48.224Z,32.01
2022-10-26T01:48:49.590Z,32.01
2022-10-26T01:51:19.048Z,32.17
2022-10-26T01:53:47.928Z,32.33
2022-10-26T01:56:20.899Z,31.88
2022-10-26T01:59:13.855Z,31.25
2022-10-26T02:02:12.660Z,31.38
2022-10-26T02:04:49.220Z,31.66
2022-10-26T02:07:25.763Z,31.74
2022-10-26T02:10:01.705Z,31.57
2022-10-26T02:12:37.347Z,31.75
2022-10-26T02:15:08.590Z,32.08
2022-10-26T02:17:41.547Z,31.86
2022-10-26T02:20:14.731Z,32.02
2022-10-26T02:22:45.373Z,32.09
2022-10-26T02:25:18.663Z,31.69
2022-10-26T02:27:49.174Z,31.62
2022-10-26T02:30:18.163Z,32.16
2022-10-26T02:32:50.385Z,31.52
2022-10-26T02:35:20.842Z,31.96
2022-10-26T02:37:50.245Z,32.01
2022-10-26T02:40:22.970Z,31.57
2022-10-26T02:42:52.070Z,31.77
2022-10-26T02:45:24.044Z,31.50
2022-10-26T02:47:53.664Z,31.63
2022-10-26T02:50:25.733Z,31.47
2022-10-26T02:53:01.626Z,31.13
2022-10-26T02:55:32.631Z,31.46
2022-10-26T02:58:03.933Z,31.56
2022-10-26T03:00:32.807Z,31.71
2022-10-26T03:03:03.616Z,31.70
2022-10-26T03:05:33.766Z,31.66
2022-10-26T03:08:02.138Z,31.75
2022-10-26T03:10:30.929Z,32.01
2022-10-26T03:12:59.142Z,31.57
2022-10-26T03:15:27.642Z,31.71
2022-10-26T03:17:55.901Z,31.64
2022-10-26T03:20:25.614Z,31.47
2022-10-26T03:22:53.857Z,31.72
2022-10-26T03:25:22.464Z,31.73
2022-10-26T03:27:57.914Z,30.92
2022-10-26T03:30:26.396Z,31.71
2022-10-26T03:32:54.743Z,31.68
2022-10-26T03:35:23.525Z,32.09
2022-10-26T03:37:53.218Z,31.90
2022-10-26T03:40:21.654Z,32.03
2022-10-26T03:42:49.981Z,32.24
2022-10-26T03:45:18.631Z,32.09
2022-10-26T03:47:48.143Z,32.15
2022-10-26T03:50:18.876Z,31.86
2022-10-26T03:52:48.521Z,32.08
2022-10-26T03:55:19.449Z,31.67
2022-10-26T03:57:47.940Z,32.19
2022-10-26T04:00:18.040Z,31.93
2022-10-26T04:02:49.070Z,32.17
2022-10-26T04:05:17.842Z,32.38
2022-10-26T04:07:46.111Z,32.39
2022-10-26T04:10:14.686Z,32.49
2022-10-26T04:12:44.206Z,32.19
2022-10-26T04:15:12.587Z,32.46
2022-10-26T04:17:40.993Z,32.56
2022-10-26T04:20:10.779Z,32.39
2022-10-26T04:22:39.237Z,32.62
2022-10-26T04:25:08.952Z,32.57
2022-10-26T04:27:37.268Z,32.80
2022-10-26T04:30:10.173Z,32.69
2022-10-26T04:32:38.455Z,32.90
2022-10-26T04:35:08.542Z,33.19
2022-10-26T04:37:37.429Z,33.20
2022-10-26T04:42:42.093Z,32.78
2022-10-26T04:45:17.018Z,33.14
2022-10-26T04:47:45.483Z,33.51
2022-10-26T04:50:15.883Z,33.21
2022-10-26T04:52:43.982Z,33.68
2022-10-26T04:55:12.392Z,33.61
2022-10-26T04:57:40.521Z,33.72
2022-10-26T05:00:10.243Z,33.63
2022-10-26T05:02:39.814Z,33.63
2022-10-26T05:05:11.271Z,33.97
2022-10-26T05:07:42.381Z,33.92
2022-10-26T05:10:11.429Z,33.96
2022-10-26T05:12:39.558Z,33.86
2022-10-26T05:15:08.925Z,33.93
2022-10-26T05:17:37.150Z,34.00
2022-10-26T05:20:12.987Z,33.58
2022-10-26T05:22:41.586Z,33.93
2022-10-26T05:25:10.612Z,34.04
2022-10-26T05:27:38.791Z,34.22
2022-10-26T05:30:08.275Z,34.15
2022-10-26T05:32:36.624Z,34.27
2022-10-26T05:35:07.280Z,34.01
2022-10-26T05:37:35.387Z,34.45
2022-10-26T05:40:03.900Z,34.37
2022-10-26T05:42:32.516Z,34.42
2022-10-26T05:45:01.056Z,34.48
2022-10-26T05:47:29.919Z,34.53
2022-10-26T05:49:58.353Z,34.65
2022-10-26T05:52:28.218Z,34.51
2022-10-26T05:54:56.693Z,35.01
2022-10-26T05:57:25.590Z,34.68
2022-10-26T05:59:54.581Z,34.56
2022-10-26T06:02:29.120Z,33.00
2022-10-26T06:04:59.348Z,32.66
2022-10-26T06:07:29.450Z,31.17
2022-10-26T06:09:58.287Z,30.13
2022-10-26T06:12:27.183Z,29.20
2022-10-26T06:14:56.136Z,28.40
2022-10-26T06:17:37.422Z,27.36
2022-10-26T06:20:10.046Z,24.98
2022-10-26T06:22:49.670Z,24.60
2022-10-26T06:25:27.251Z,24.53
2022-10-26T06:28:07.519Z,24.03
2022-10-26T06:30:36.109Z,23.71
2022-10-26T06:33:06.722Z,23.24
2022-10-26T06:35:54.734Z,21.54
2022-10-26T06:38:24.971Z,20.22
2022-10-26T06:40:54.476Z,19.89
2022-10-26T06:43:26.649Z,19.30
2022-10-26T06:46:01.371Z,18.77
2022-10-26T06:48:31.066Z,18.52
2022-10-26T06:51:00.115Z,18.32
2022-10-26T06:53:33.681Z,17.47
2022-10-26T06:56:02.747Z,17.79
2022-10-26T06:58:34.200Z,16.65
2022-10-26T07:01:03.594Z,16.50
2022-10-26T07:03:32.072Z,16.43
2022-10-26T07:06:01.126Z,14.72
2022-10-26T07:08:31.252Z,14.65
2022-10-26T07:11:00.108Z,14.43
2022-10-26T07:13:28.298Z,13.83
2022-10-26T07:15:56.724Z,13.54
2022-10-26T07:18:24.988Z,12.47
2022-10-26T07:20:53.368Z,11.73
2022-10-26T07:23:23.330Z,11.77
2022-10-26T07:25:53.439Z,11.89
2022-10-26T07:28:21.558Z,11.80
2022-10-26T07:30:53.926Z,11.54
2022-10-26T07:33:24.224Z,11.47
2022-10-26T07:35:53.012Z,10.92
2022-10-26T07:38:21.516Z,10.51
2022-10-26T07:40:50.706Z,10.52
2022-10-26T07:43:20.427Z,10.05
2022-10-26T07:45:51.168Z,9.68
2022-10-26T07:48:19.424Z,10.04
2022-10-26T07:50:47.891Z,9.30
2022-10-26T07:53:16.111Z,9.61
2022-10-26T07:55:44.730Z,9.17
2022-10-26T07:58:12.897Z,8.71
2022-10-26T08:00:42.578Z,8.59
2022-10-26T08:03:10.912Z,8.28
2022-10-26T08:05:39.246Z,8.30
2022-10-26T08:08:07.525Z,8.25
2022-10-26T08:10:35.825Z,7.57
2022-10-26T08:13:03.965Z,7.48
2022-10-26T08:15:32.341Z,7.50
2022-10-26T08:18:01.868Z,7.60
2022-10-26T08:20:30.195Z,7.68
2022-10-26T08:22:58.361Z,7.42
2022-10-26T08:25:27.093Z,7.20
2022-10-26T08:27:55.445Z,6.90
2022-10-26T08:30:24.025Z,6.64
2022-10-26T08:33:01.307Z,6.25
2022-10-26T08:35:30.745Z,6.17
2022-10-26T08:37:59.553Z,6.27
2022-10-26T08:40:30.151Z,6.31
2022-10-26T08:43:01.643Z,6.03
2022-10-26T08:45:36.936Z,5.76
2022-10-26T08:48:12.593Z,5.40
2022-10-26T08:50:43.799Z,5.67
2022-10-26T08:53:19.427Z,5.62
2022-10-26T08:55:50.434Z,5.60
2022-10-26T08:58:23.299Z,5.19
2022-10-26T09:00:52.435Z,5.05
2022-10-26T09:03:22.273Z,4.74
2022-10-26T09:06:13.617Z,4.60
2022-10-26T09:08:51.832Z,4.27
2022-10-26T09:11:27.190Z,3.54
2022-10-26T09:14:02.771Z,3.40
2022-10-26T09:16:34.287Z,4.02
2022-10-26T09:19:20.513Z,3.48
2022-10-26T09:21:51.633Z,3.19
2022-10-26T09:24:24.430Z,3.08
2022-10-26T09:26:55.996Z,2.84
2022-10-26T09:29:28.282Z,2.53
2022-10-26T09:31:57.582Z,3.01
2022-10-26T09:34:30.780Z,2.51
2022-10-26T09:36:59.282Z,2.58
2022-10-26T09:39:34.003Z,2.33
2022-10-26T09:42:08.238Z,2.36
2022-10-26T09:44:40.261Z,2.24
2022-10-26T09:47:16.019Z,2.31
2022-10-26T09:49:48.991Z,2.01
2022-10-26T09:52:17.695Z,2.20
2022-10-26T09:54:46.044Z,2.38
2022-10-26T09:57:15.990Z,1.94
2022-10-26T09:59:44.223Z,2.06
2022-10-26T10:02:34.030Z,2.15
2022-10-26T10:05:06.806Z,2.47
2022-10-26T10:07:39.755Z,2.26
2022-10-26T10:10:10.922Z,2.08
2022-10-26T10:12:39.552Z,2.59
2022-10-26T10:15:18.671Z,1.97
2022-10-26T10:17:52.981Z,2.33
2022-10-26T10:20:25.644Z,1.79
2022-10-26T10:22:58.637Z,1.33
2022-10-26T10:25:35.413Z,1.84
2022-10-26T10:28:05.301Z,1.91
2022-10-26T10:30:34.590Z,1.47
2022-10-26T10:33:07.899Z,1.35
2022-10-26T10:35:37.907Z,1.42
2022-10-26T10:38:06.556Z,1.41
2022-10-26T10:40:36.027Z,1.42
2022-10-26T10:43:06.989Z,1.55
2022-10-26T10:45:36.472Z,1.27
2022-10-26T10:48:06.805Z,1.33
2022-10-26T10:50:36.510Z,1.40
2022-10-26T10:53:19.639Z,0.99
2022-10-26T10:55:57.466Z,1.18
2022-10-26T10:58:30.973Z,1.51
2022-10-26T11:00:59.309Z,1.77
2022-10-26T11:03:40.899Z,1.18
2022-10-26T11:06:14.325Z,1.21
2022-10-26T11:08:47.569Z,1.59
2022-10-26T11:11:18.567Z,1.61
2022-10-26T11:13:52.656Z,1.90
2022-10-26T11:16:24.001Z,2.47
2022-10-26T11:18:56.751Z,3.03
2022-10-26T11:21:28.304Z,2.67
2022-10-26T11:24:14.746Z,2.28
2022-10-26T11:26:47.865Z,2.29
2022-10-26T11:29:38.343Z,2.10
2022-10-26T11:32:15.301Z,2.28
2022-10-26T11:34:47.517Z,2.67
2022-10-26T11:37:21.005Z,2.96
2022-10-26T11:40:03.521Z,3.09
2022-10-26T11:42:36.139Z,3.78
2022-10-26T11:45:11.427Z,5.09
2022-10-26T11:47:43.037Z,6.42
2022-10-26T11:50:17.688Z,7.61
2022-10-26T11:52:49.151Z,8.56
2022-10-26T11:55:19.795Z,9.33
2022-10-26T11:57:48.273Z,10.10
2022-10-26T12:00:18.945Z,10.76
2022-10-26T12:02:50.244Z,11.41
2022-10-26T12:05:22.124Z,11.41
2022-10-26T12:07:52.926Z,12.47
2022-10-26T12:10:31.170Z,12.33
2022-10-26T12:13:05.856Z,12.46
2022-10-26T12:16:01.833Z,12.52
2022-10-26T12:18:50.187Z,12.61
2022-10-26T12:21:19.527Z,12.95
2022-10-26T12:23:59.279Z,12.68
2022-10-26T12:26:53.303Z,12.86
2022-10-26T12:29:49.361Z,13.51
2022-10-26T12:32:51.790Z,12.91
2022-10-26T12:35:36.481Z,13.51
2022-10-26T12:38:37.602Z,14.50
2022-10-26T12:41:13.868Z,14.62
2022-10-26T12:43:46.521Z,14.10
2022-10-26T12:46:42.183Z,13.63
2022-10-26T12:49:57.340Z,14.18
2022-10-26T12:52:47.981Z,14.89
2022-10-26T12:55:51.763Z,14.20
2022-10-26T12:59:04.669Z,14.35
2022-10-26T13:02:05.473Z,15.03
2022-10-26T13:05:09.449Z,14.38
2022-10-26T13:07:39.034Z,15.21
2022-10-26T13:10:20.225Z,15.09
2022-10-26T13:12:49.289Z,14.44
2022-10-26T13:15:27.835Z,14.78
2022-10-26T13:18:04.052Z,14.83
2022-10-26T13:20:33.153Z,15.65
2022-10-26T13:25:34.533Z,16.64
2022-10-26T13:28:06.181Z,15.76
2022-10-26T13:30:45.970Z,15.11
2022-10-26T13:33:22.461Z,15.90
2022-10-26T13:35:53.472Z,15.89
2022-10-26T13:38:22.221Z,16.36
2022-10-26T13:40:51.232Z,16.65
2022-10-26T13:43:23.156Z,17.04
2022-10-26T13:45:56.316Z,16.45
2022-10-26T13:48:32.176Z,17.07
2022-10-26T13:51:02.753Z,16.62
2022-10-26T13:53:41.239Z,16.59
2022-10-26T13:56:17.624Z,17.55
2022-10-26T13:58:49.150Z,17.18
2022-10-26T14:01:21.668Z,16.40
2022-10-26T14:03:50.588Z,17.44
2022-10-26T14:06:22.566Z,17.17
2022-10-26T14:08:52.490Z,17.39
2022-10-26T14:11:23.181Z,17.19
2022-10-26T14:13:52.777Z,17.32
2022-10-26T14:16:26.553Z,17.06
2022-10-26T14:18:54.962Z,17.77
2022-10-26T14:21:24.881Z,17.50
2022-10-26T14:23:56.695Z,18.53
2022-10-26T14:26:27.258Z,18.27
2022-10-26T14:28:56.971Z,18.81
2022-10-26T14:31:28.941Z,18.41
2022-10-26T14:33:58.843Z,18.00
2022-10-26T14:36:30.652Z,17.60
2022-10-26T14:39:01.342Z,17.70
2022-10-26T14:41:30.187Z,17.77
2022-10-26T14:43:59.477Z,17.79
2022-10-26T14:46:33.798Z,17.96
2022-10-26T14:49:03.223Z,18.14
2022-10-26T14:51:35.165Z,18.19
2022-10-26T14:54:05.528Z,18.32
2022-10-26T14:56:41.042Z,17.95
2022-10-26T14:59:19.001Z,18.89
2022-10-26T15:01:51.370Z,18.35
2022-10-26T15:04:32.103Z,18.59
2022-10-26T15:07:09.681Z,18.98
2022-10-26T15:09:44.130Z,18.77
2022-10-26T15:12:30.724Z,19.28
2022-10-26T15:15:06.666Z,19.53
2022-10-26T15:17:38.687Z,19.54
2022-10-26T15:20:08.802Z,19.82
2022-10-26T15:22:37.105Z,20.08
2022-10-26T15:25:07.755Z,20.04
2022-10-26T15:27:35.956Z,20.16
2022-10-26T15:30:17.851Z,19.94
2022-10-26T15:32:47.582Z,20.07
2022-10-26T15:35:31.244Z,20.15
2022-10-26T15:38:01.328Z,20.57
2022-10-26T15:40:31.236Z,20.41
2022-10-26T15:43:01.609Z,20.89
2022-10-26T15:45:33.101Z,20.74
2022-10-26T15:48:18.570Z,20.63
2022-10-26T15:50:46.879Z,21.71
2022-10-26T15:53:19.573Z,21.35
2022-10-26T15:55:47.972Z,21.56
2022-10-26T15:58:16.362Z,21.29
2022-10-26T16:00:44.779Z,21.66
2022-10-26T16:03:16.654Z,21.23
2022-10-26T16:05:45.569Z,21.71
2022-10-26T16:08:17.849Z,21.41
2022-10-26T16:10:53.040Z,21.43
2022-10-26T16:13:21.697Z,21.76
2022-10-26T16:15:50.624Z,21.83
2022-10-26T16:18:20.655Z,21.52
2022-10-26T16:20:49.039Z,22.32
2022-10-26T16:23:17.106Z,22.35
2022-10-26T16:25:46.839Z,22.15
2022-10-26T16:28:16.677Z,22.25
2022-10-26T16:30:45.611Z,22.20
2022-10-26T16:33:13.909Z,22.71
2022-10-26T16:35:43.801Z,22.66
2022-10-26T16:38:11.954Z,22.96
2022-10-26T16:40:42.702Z,23.02
2022-10-26T16:43:11.568Z,22.89
2022-10-26T16:45:41.891Z,22.98
2022-10-26T16:48:14.762Z,23.09
2022-10-26T16:50:44.778Z,22.98
2022-10-26T16:53:12.917Z,23.05
2022-10-26T16:58:14.203Z,23.29
2022-10-26T17:00:43.258Z,23.54
2022-10-26T17:03:11.419Z,23.62
2022-10-26T17:05:39.752Z,24.17
2022-10-26T17:08:10.038Z,23.87
2022-10-26T17:10:38.343Z,24.19
2022-10-26T17:13:06.417Z,24.10
2022-10-26T17:15:34.937Z,24.18
2022-10-26T17:18:03.101Z,24.27
2022-10-26T17:20:31.453Z,24.75
2022-10-26T17:22:59.696Z,24.92
2022-10-26T17:25:29.336Z,24.44
2022-10-26T17:27:58.687Z,24.72
2022-10-26T17:30:28.475Z,24.82
2022-10-26T17:32:58.446Z,25.00
2022-10-26T17:35:26.887Z,24.81
2022-10-26T17:37:55.036Z,25.09
2022-10-26T17:40:23.377Z,25.15
2022-10-26T17:42:53.230Z,25.15
2022-10-26T17:45:21.529Z,25.79
2022-10-26T17:47:49.884Z,25.85
2022-10-26T17:50:18.527Z,25.93
2022-10-26T17:52:46.929Z,25.84
2022-10-26T17:55:15.389Z,25.87
2022-10-26T17:57:44.090Z,26.05
2022-10-26T18:00:15.245Z,26.00
2022-10-26T18:02:43.704Z,26.31
2022-10-26T18:05:12.263Z,26.55
2022-10-26T18:07:40.543Z,26.42
2022-10-26T18:10:26.217Z,26.14
2022-10-26T18:12:58.063Z,26.27
2022-10-26T18:15:27.944Z,26.06
2022-10-26T18:17:58.404Z,26.64
2022-10-26T18:20:28.101Z,26.66
2022-10-26T18:22:56.765Z,26.71
2022-10-26T18:25:25.335Z,26.92
2022-10-26T18:27:55.496Z,27.23
2022-10-26T18:30:24.251Z,27.42
2022-10-26T18:32:54.682Z,27.13
2022-10-26T18:35:23.231Z,27.37
2022-10-26T18:37:51.710Z,26.54
2022-10-26T18:40:20.337Z,26.27
2022-10-26T18:42:48.577Z,26.51
2022-10-26T18:45:17.069Z,26.55
2022-10-26T18:47:45.279Z,27.22
2022-10-26T18:50:15.162Z,27.04
2022-10-26T18:52:43.308Z,27.14
2022-10-26T18:55:11.669Z,27.23
2022-10-26T18:57:39.877Z,27.63
2022-10-26T19:00:09.944Z,27.38
2022-10-26T19:02:38.127Z,27.56
2022-10-26T19:05:07.438Z,27.42
2022-10-26T19:07:39.042Z,27.45
2022-10-26T19:10:08.871Z,27.52
2022-10-26T19:12:37.236Z,27.98
2022-10-26T19:15:06.401Z,27.67
2022-10-26T19:17:34.467Z,27.88
2022-10-26T19:20:02.972Z,28.02
2022-10-26T19:22:31.196Z,27.94
2022-10-26T19:25:00.920Z,27.97
2022-10-26T19:27:29.119Z,27.92
2022-10-26T19:29:57.548Z,27.88
2022-10-26T19:32:28.104Z,27.69
2022-10-26T19:34:56.475Z,28.01
2022-10-26T19:37:28.164Z,28.08
2022-10-26T19:39:56.752Z,27.86
2022-10-26T19:42:28.249Z,27.90
2022-10-26T19:44:56.681Z,28.47
2022-10-26T19:47:25.042Z,28.32
2022-10-26T19:49:53.426Z,28.51
2022-10-26T19:52:21.492Z,28.90
2022-10-26T19:54:49.888Z,28.86
2022-10-26T19:57:17.997Z,28.59
2022-10-26T19:59:47.643Z,28.50
2022-10-26T20:02:15.760Z,28.67
2022-10-26T20:04:45.335Z,28.62
2022-10-26T20:07:14.467Z,28.72
2022-10-26T20:09:42.812Z,28.87
2022-10-26T20:12:12.769Z,28.86
2022-10-26T20:14:41.147Z,28.88
2022-10-26T20:17:10.804Z,28.79
2022-10-26T20:19:39.197Z,29.08
2022-10-26T20:22:07.486Z,28.91
2022-10-26T20:24:35.927Z,29.16
2022-10-26T20:27:04.279Z,29.19
2022-10-26T20:29:32.621Z,29.23
2022-10-26T20:32:00.883Z,29.40
2022-10-26T20:34:33.363Z,28.99
2022-10-26T20:37:01.722Z,29.41
2022-10-26T20:39:30.477Z,29.34
2022-10-26T20:41:59.258Z,29.52
2022-10-26T20:44:31.363Z,29.32
2022-10-26T20:46:59.962Z,29.61
2022-10-26T20:49:28.705Z,29.71
2022-10-26T20:52:19.908Z,29.14
2022-10-26T20:54:53.094Z,29.29
2022-10-26T20:57:26.278Z,29.26
2022-10-26T20:59:57.864Z,29.60
2022-10-26T21:02:27.842Z,30.07
2022-10-26T21:04:56.169Z,29.80
2022-10-26T21:07:25.945Z,29.67
2022-10-26T21:09:54.300Z,29.93
2022-10-26T21:12:22.668Z,29.87
2022-10-26T21:14:51.161Z,30.07
2022-10-26T21:17:19.260Z,30.20
2022-10-26T21:19:47.539Z,30.11
2022-10-26T21:22:15.833Z,30.41
2022-10-26T21:24:45.495Z,30.08
2022-10-26T21:27:13.617Z,30.40
2022-10-26T21:29:42.572Z,30.32
2022-10-26T21:32:10.634Z,30.43
2022-10-26T21:34:39.045Z,30.83
2022-10-26T21:37:07.146Z,30.92
2022-10-26T21:39:35.503Z,30.92
2022-10-26T21:42:05.215Z,30.66
2022-10-26T21:44:40.819Z,31.00
2022-10-26T21:47:10.098Z,31.13
2022-10-26T21:49:38.674Z,31.17
2022-10-26T21:52:08.575Z,30.71
2022-10-26T21:54:36.880Z,30.72
2022-10-26T21:57:06.565Z,30.42
2022-10-26T21:59:35.020Z,31.06
2022-10-26T22:02:03.276Z,31.24
2022-10-26T22:04:31.981Z,31.16
2022-10-26T22:07:00.096Z,31.22
2022-10-26T22:09:28.562Z,31.24
2022-10-26T22:11:56.777Z,31.77
2022-10-26T22:14:26.396Z,31.37
2022-10-26T22:16:54.539Z,31.60
2022-10-26T22:19:22.997Z,31.59
2022-10-26T22:21:51.630Z,31.42
2022-10-26T22:24:20.437Z,31.86
2022-10-26T22:26:48.738Z,31.99
2022-10-26T22:29:17.138Z,31.99
2022-10-26T22:31:46.960Z,31.81
2022-10-26T22:34:16.614Z,31.95
2022-10-26T22:36:45.354Z,32.13
2022-10-26T22:39:13.867Z,32.21
2022-10-26T22:41:42.204Z,32.14
2022-10-26T22:44:10.715Z,32.23
2022-10-26T22:46:39.094Z,32.04
2022-10-26T22:49:08.694Z,31.97
2022-10-26T22:51:37.108Z,32.21
2022-10-26T22:54:06.520Z,32.08
2022-10-26T22:56:36.294Z,32.14
2022-10-26T22:59:05.268Z,32.83
2022-10-26T23:01:35.284Z,32.57
2022-10-26T23:04:08.302Z,32.03
2022-10-26T23:06:36.595Z,32.54
2022-10-26T23:09:05.267Z,32.59
2022-10-26T23:11:34.029Z,32.50
2022-10-26T23:14:03.483Z,32.63
2022-10-26T23:16:32.328Z,32.53
2022-10-26T23:19:00.801Z,32.49
2022-10-26T23:21:30.523Z,32.22
2022-10-26T23:23:59.877Z,32.41
2022-10-26T23:26:28.368Z,32.53
2022-10-26T23:28:57.147Z,32.49
2022-10-26T23:31:27.819Z,32.26
2022-10-26T23:33:57.411Z,32.13
2022-10-26T23:36:26.175Z,32.48
2022-10-26T23:38:56.140Z,32.27
2022-10-26T23:41:24.411Z,32.65
2022-10-26T23:43:52.998Z,32.99
2022-10-26T23:46:21.185Z,32.87
2022-10-26T23:48:49.862Z,32.82
2022-10-26T23:51:18.085Z,33.00
2022-10-26T23:53:46.847Z,33.04
2022-10-26T23:56:16.389Z,33.09
2022-10-26T23:58:44.646Z,33.20
